sensor_id;sensor_type;location;lat;lon;timestamp;pressure;altitude;pressure_sealevel;temperature;humidity
21781;BME280;52576;53.614;9.894;2023-06-24T00:00:42;102086.41;;;15.59;81.27
21781;BME280;52576;53.614;9.894;2023-06-24T00:02:45;102091.03;;;15.55;81.33
21781;BME280;52576;53.614;9.894;2023-06-24T00:04:48;102084.13;;;15.53;81.65
21781;BME280;52576;53.614;9.894;2023-06-24T00:06:51;102080.00;;;15.49;82.03
21781;BME280;52576;53.614;9.894;2023-06-24T00:08:54;102086.34;;;15.46;81.75
21781;BME280;52576;53.614;9.894;2023-06-24T00:11:03;102094.56;;;15.42;81.91
21781;BME280;52576;53.614;9.894;2023-06-24T00:13:07;102091.16;;;15.40;81.98
21781;BME280;52576;53.614;9.894;2023-06-24T00:15:10;102086.09;;;15.37;82.27
21781;BME280;52576;53.614;9.894;2023-06-24T00:17:13;102097.69;;;15.34;82.64
21781;BME280;52576;53.614;9.894;2023-06-24T00:19:18;102097.94;;;15.31;82.72
21781;BME280;52576;53.614;9.894;2023-06-24T00:21:25;102100.78;;;15.28;82.99
21781;BME280;52576;53.614;9.894;2023-06-24T00:23:31;102093.88;;;15.25;82.85
21781;BME280;52576;53.614;9.894;2023-06-24T00:25:35;102098.53;;;15.22;82.93
21781;BME280;52576;53.614;9.894;2023-06-24T00:27:40;102098.72;;;15.19;83.13
21781;BME280;52576;53.614;9.894;2023-06-24T00:29:43;102099.75;;;15.16;83.25
21781;BME280;52576;53.614;9.894;2023-06-24T00:31:46;102094.66;;;15.13;83.42
21781;BME280;52576;53.614;9.894;2023-06-24T00:33:49;102094.03;;;15.10;83.86
21781;BME280;52576;53.614;9.894;2023-06-24T00:35:53;102100.34;;;15.07;83.64
21781;BME280;52576;53.614;9.894;2023-06-24T00:37:58;102102.25;;;15.05;84.01
21781;BME280;52576;53.614;9.894;2023-06-24T00:40:01;102113.03;;;15.02;84.07
21781;BME280;52576;53.614;9.894;2023-06-24T00:42:05;102111.31;;;15.01;84.12
21781;BME280;52576;53.614;9.894;2023-06-24T00:44:09;102112.38;;;14.99;84.11
21781;BME280;52576;53.614;9.894;2023-06-24T00:46:12;102110.75;;;14.96;84.48
21781;BME280;52576;53.614;9.894;2023-06-24T00:48:17;102110.00;;;14.94;84.63
21781;BME280;52576;53.614;9.894;2023-06-24T00:50:20;102117.19;;;14.92;84.24
21781;BME280;52576;53.614;9.894;2023-06-24T00:52:23;102108.59;;;14.88;84.73
21781;BME280;52576;53.614;9.894;2023-06-24T00:54:26;102113.97;;;14.87;84.72
21781;BME280;52576;53.614;9.894;2023-06-24T00:56:33;102115.03;;;14.84;84.84
21781;BME280;52576;53.614;9.894;2023-06-24T00:58:36;102121.34;;;14.82;84.99
21781;BME280;52576;53.614;9.894;2023-06-24T01:00:42;102124.19;;;14.79;85.17
21781;BME280;52576;53.614;9.894;2023-06-24T01:02:46;102118.16;;;14.77;85.22
21781;BME280;52576;53.614;9.894;2023-06-24T01:04:49;102120.06;;;14.75;85.42
21781;BME280;52576;53.614;9.894;2023-06-24T01:06:53;102116.66;;;14.73;85.53
21781;BME280;52576;53.614;9.894;2023-06-24T01:08:56;102110.63;;;14.71;85.43
21781;BME280;52576;53.614;9.894;2023-06-24T01:10:59;102111.56;;;14.70;85.43
21781;BME280;52576;53.614;9.894;2023-06-24T01:13:02;102113.44;;;14.68;85.47
21781;BME280;52576;53.614;9.894;2023-06-24T01:15:05;102116.19;;;14.66;85.64
21781;BME280;52576;53.614;9.894;2023-06-24T01:17:12;102118.91;;;14.65;85.83
21781;BME280;52576;53.614;9.894;2023-06-24T01:19:28;102113.84;;;14.62;85.95
21781;BME280;52576;53.614;9.894;2023-06-24T01:21:39;102119.28;;;14.58;85.85
21781;BME280;52576;53.614;9.894;2023-06-24T01:23:56;102129.09;;;14.56;86.16
21781;BME280;52576;53.614;9.894;2023-06-24T01:26:12;102128.38;;;14.54;86.42
21781;BME280;52576;53.614;9.894;2023-06-24T01:28:22;102124.13;;;14.52;86.35
21781;BME280;52576;53.614;9.894;2023-06-24T01:30:38;102127.81;;;14.49;86.38
21781;BME280;52576;53.614;9.894;2023-06-24T01:32:48;102130.63;;;14.46;86.23
21781;BME280;52576;53.614;9.894;2023-06-24T01:34:55;102131.66;;;14.44;86.50
21781;BME280;52576;53.614;9.894;2023-06-24T01:37:01;102134.38;;;14.42;86.59
21781;BME280;52576;53.614;9.894;2023-06-24T01:39:08;102132.75;;;14.40;86.45
21781;BME280;52576;53.614;9.894;2023-06-24T01:41:11;102134.72;;;14.36;86.77
21781;BME280;52576;53.614;9.894;2023-06-24T01:43:17;102138.41;;;14.34;86.78
21781;BME280;52576;53.614;9.894;2023-06-24T01:45:23;102132.44;;;14.30;86.78
21781;BME280;52576;53.614;9.894;2023-06-24T01:47:27;102125.59;;;14.27;87.11
21781;BME280;52576;53.614;9.894;2023-06-24T01:49:33;102128.34;;;14.26;87.14
21781;BME280;52576;53.614;9.894;2023-06-24T01:51:39;102134.63;;;14.23;87.14
21781;BME280;52576;53.614;9.894;2023-06-24T01:53:44;102127.66;;;14.22;87.44
21781;BME280;52576;53.614;9.894;2023-06-24T01:55:47;102124.28;;;14.20;87.71
21781;BME280;52576;53.614;9.894;2023-06-24T01:57:51;102130.56;;;14.18;87.40
21781;BME280;52576;53.614;9.894;2023-06-24T01:59:54;102128.88;;;14.17;87.48
21781;BME280;52576;53.614;9.894;2023-06-24T02:01:58;102137.72;;;14.16;87.60
21781;BME280;52576;53.614;9.894;2023-06-24T02:04:03;102132.63;;;14.13;87.65
21781;BME280;52576;53.614;9.894;2023-06-24T02:06:08;102135.38;;;14.11;88.00
21781;BME280;52576;53.614;9.894;2023-06-24T02:08:11;102127.53;;;14.10;87.98
21781;BME280;52576;53.614;9.894;2023-06-24T02:10:15;102136.38;;;14.09;87.69
21781;BME280;52576;53.614;9.894;2023-06-24T02:12:19;102141.84;;;14.06;88.05
21781;BME280;52576;53.614;9.894;2023-06-24T02:14:23;102131.50;;;14.03;87.99
21781;BME280;52576;53.614;9.894;2023-06-24T02:16:26;102133.38;;;14.01;88.09
21781;BME280;52576;53.614;9.894;2023-06-24T02:18:30;102135.25;;;13.99;88.03
21781;BME280;52576;53.614;9.894;2023-06-24T02:20:33;102138.06;;;13.96;87.90
21781;BME280;52576;53.614;9.894;2023-06-24T02:22:38;102142.59;;;13.93;88.09
21781;BME280;52576;53.614;9.894;2023-06-24T02:24:41;102140.03;;;13.92;88.20
21781;BME280;52576;53.614;9.894;2023-06-24T02:26:45;102141.91;;;13.90;88.12
21781;BME280;52576;53.614;9.894;2023-06-24T02:28:49;102146.34;;;13.89;88.45
21781;BME280;52576;53.614;9.894;2023-06-24T02:30:52;102143.88;;;13.86;88.39
21781;BME280;52576;53.614;9.894;2023-06-24T02:32:55;102143.13;;;13.84;88.27
21781;BME280;52576;53.614;9.894;2023-06-24T02:34:59;102150.19;;;13.84;88.37
21781;BME280;52576;53.614;9.894;2023-06-24T02:37:03;102149.41;;;13.82;88.51
21781;BME280;52576;53.614;9.894;2023-06-24T02:39:08;102157.41;;;13.80;88.36
21781;BME280;52576;53.614;9.894;2023-06-24T02:41:12;102154.78;;;13.80;88.74
21781;BME280;52576;53.614;9.894;2023-06-24T02:43:16;102166.25;;;13.79;88.64
21781;BME280;52576;53.614;9.894;2023-06-24T02:45:19;102159.28;;;13.78;88.79
21781;BME280;52576;53.614;9.894;2023-06-24T02:47:22;102170.75;;;13.77;88.87
21781;BME280;52576;53.614;9.894;2023-06-24T02:49:26;102168.13;;;13.77;88.96
21781;BME280;52576;53.614;9.894;2023-06-24T02:51:29;102164.75;;;13.75;88.69
21781;BME280;52576;53.614;9.894;2023-06-24T02:53:33;102173.59;;;13.74;88.72
21781;BME280;52576;53.614;9.894;2023-06-24T02:55:38;102157.03;;;13.72;88.70
21781;BME280;52576;53.614;9.894;2023-06-24T02:57:42;102166.72;;;13.72;89.00
21781;BME280;52576;53.614;9.894;2023-06-24T03:00:04;102165.88;;;13.71;89.07
21781;BME280;52576;53.614;9.894;2023-06-24T03:02:27;102165.97;;;13.70;88.98
21781;BME280;52576;53.614;9.894;2023-06-24T03:04:30;102165.09;;;13.69;89.11
21781;BME280;52576;53.614;9.894;2023-06-24T03:06:33;102167.75;;;13.69;89.14
21781;BME280;52576;53.614;9.894;2023-06-24T03:08:39;102168.69;;;13.68;88.98
21781;BME280;52576;53.614;9.894;2023-06-24T03:10:44;102167.81;;;13.68;88.99
21781;BME280;52576;53.614;9.894;2023-06-24T03:12:52;102166.97;;;13.67;89.17
21781;BME280;52576;53.614;9.894;2023-06-24T03:15:02;102169.63;;;13.67;89.15
21781;BME280;52576;53.614;9.894;2023-06-24T03:17:06;102163.41;;;13.68;89.27
21781;BME280;52576;53.614;9.894;2023-06-24T03:19:09;102166.81;;;13.70;89.13
21781;BME280;52576;53.614;9.894;2023-06-24T03:21:12;102172.84;;;13.72;89.23
21781;BME280;52576;53.614;9.894;2023-06-24T03:23:15;102172.75;;;13.74;89.22
21781;BME280;52576;53.614;9.894;2023-06-24T03:25:18;102175.38;;;13.74;89.34
21781;BME280;52576;53.614;9.894;2023-06-24T03:27:24;102175.28;;;13.75;89.29
21781;BME280;52576;53.614;9.894;2023-06-24T03:29:27;102179.72;;;13.75;89.11
21781;BME280;52576;53.614;9.894;2023-06-24T03:31:38;102170.97;;;13.74;89.32
21781;BME280;52576;53.614;9.894;2023-06-24T03:33:48;102166.53;;;13.75;89.07
21781;BME280;52576;53.614;9.894;2023-06-24T03:35:50;102167.47;;;13.74;89.27
21781;BME280;52576;53.614;9.894;2023-06-24T03:37:58;102166.63;;;13.73;89.38
21781;BME280;52576;53.614;9.894;2023-06-24T03:40:01;102173.59;;;13.74;89.11
21781;BME280;52576;53.614;9.894;2023-06-24T03:42:05;102179.72;;;13.75;89.13
21781;BME280;52576;53.614;9.894;2023-06-24T03:44:09;102171.81;;;13.75;89.57
21781;BME280;52576;53.614;9.894;2023-06-24T03:46:12;102176.16;;;13.76;89.63
21781;BME280;52576;53.614;9.894;2023-06-24T03:48:15;102175.09;;;13.78;89.48
21781;BME280;52576;53.614;9.894;2023-06-24T03:50:18;102179.44;;;13.79;89.72
21781;BME280;52576;53.614;9.894;2023-06-24T03:52:22;102183.59;;;13.83;89.88
21781;BME280;52576;53.614;9.894;2023-06-24T03:54:25;102183.41;;;13.86;89.85
21781;BME280;52576;53.614;9.894;2023-06-24T03:56:28;102188.50;;;13.89;89.58
21781;BME280;52576;53.614;9.894;2023-06-24T03:58:31;102183.91;;;13.93;89.96
21781;BME280;52576;53.614;9.894;2023-06-24T04:00:35;102186.28;;;13.98;90.05
21781;BME280;52576;53.614;9.894;2023-06-24T04:02:42;102188.66;;;14.02;90.05
21781;BME280;52576;53.614;9.894;2023-06-24T04:04:45;102192.69;;;14.08;90.04
21781;BME280;52576;53.614;9.894;2023-06-24T04:06:51;102193.28;;;14.13;90.15
21781;BME280;52576;53.614;9.894;2023-06-24T04:08:54;102187.66;;;14.19;89.94
21781;BME280;52576;53.614;9.894;2023-06-24T04:10:57;102184.75;;;14.23;89.99
21781;BME280;52576;53.614;9.894;2023-06-24T04:13:01;102184.47;;;14.28;89.96
21781;BME280;52576;53.614;9.894;2023-06-24T04:15:05;102185.97;;;14.32;90.23
21781;BME280;52576;53.614;9.894;2023-06-24T04:17:10;102187.47;;;14.36;90.30
21781;BME280;52576;53.614;9.894;2023-06-24T04:19:13;102189.00;;;14.40;90.02
21781;BME280;52576;53.614;9.894;2023-06-24T04:21:16;102190.53;;;14.44;90.29
21781;BME280;52576;53.614;9.894;2023-06-24T04:23:20;102185.84;;;14.49;90.16
21781;BME280;52576;53.614;9.894;2023-06-24T04:25:23;102184.72;;;14.53;89.95
21781;BME280;52576;53.614;9.894;2023-06-24T04:27:26;102179.22;;;14.56;90.12
21781;BME280;52576;53.614;9.894;2023-06-24T04:29:29;102177.16;;;14.62;90.17
21781;BME280;52576;53.614;9.894;2023-06-24T04:31:32;102182.06;;;14.68;90.12
21781;BME280;52576;53.614;9.894;2023-06-24T04:33:36;102177.44;;;14.71;90.15
21781;BME280;52576;53.614;9.894;2023-06-24T04:35:39;102176.31;;;14.75;90.30
21781;BME280;52576;53.614;9.894;2023-06-24T04:37:42;102184.69;;;14.82;90.44
21781;BME280;52576;53.614;9.894;2023-06-24T04:39:47;102185.25;;;14.87;90.22
21781;BME280;52576;53.614;9.894;2023-06-24T04:41:50;102191.94;;;14.92;90.53
21781;BME280;52576;53.614;9.894;2023-06-24T04:43:53;102190.81;;;14.97;90.01
21781;BME280;52576;53.614;9.894;2023-06-24T04:45:56;102194.88;;;15.02;90.55
21781;BME280;52576;53.614;9.894;2023-06-24T04:47:59;102187.47;;;15.07;90.13
21781;BME280;52576;53.614;9.894;2023-06-24T04:50:03;102195.03;;;15.13;90.39
21781;BME280;52576;53.614;9.894;2023-06-24T04:52:06;102197.38;;;15.18;90.02
21781;BME280;52576;53.614;9.894;2023-06-24T04:54:09;102194.47;;;15.22;89.97
21781;BME280;52576;53.614;9.894;2023-06-24T04:56:13;102195.13;;;15.26;89.82
21781;BME280;52576;53.614;9.894;2023-06-24T04:58:16;102199.16;;;15.32;89.81
21781;BME280;52576;53.614;9.894;2023-06-24T05:00:19;102204.03;;;15.38;89.44
21781;BME280;52576;53.614;9.894;2023-06-24T05:02:24;102204.47;;;15.44;89.52
21781;BME280;52576;53.614;9.894;2023-06-24T05:04:27;102199.56;;;15.52;89.26
21781;BME280;52576;53.614;9.894;2023-06-24T05:06:32;102191.28;;;15.58;88.96
21781;BME280;52576;53.614;9.894;2023-06-24T05:08:34;102189.81;;;15.67;88.94
21781;BME280;52576;53.614;9.894;2023-06-24T05:10:37;102184.13;;;15.73;88.55
21781;BME280;52576;53.614;9.894;2023-06-24T05:12:40;102180.97;;;15.81;88.32
21781;BME280;52576;53.614;9.894;2023-06-24T05:14:43;102177.81;;;15.88;87.87
21781;BME280;52576;53.614;9.894;2023-06-24T05:16:46;102189.69;;;15.95;87.70
21781;BME280;52576;53.614;9.894;2023-06-24T05:18:49;102192.66;;;16.04;87.53
21781;BME280;52576;53.614;9.894;2023-06-24T05:20:52;102199.25;;;16.11;87.07
21781;BME280;52576;53.614;9.894;2023-06-24T05:22:56;102187.28;;;16.18;86.81
21781;BME280;52576;53.614;9.894;2023-06-24T05:24:59;102185.06;;;16.24;86.17
21781;BME280;52576;53.614;9.894;2023-06-24T05:27:03;102195.13;;;16.32;85.34
21781;BME280;52576;53.614;9.894;2023-06-24T05:29:06;102181.44;;;16.38;84.97
21781;BME280;52576;53.614;9.894;2023-06-24T05:31:09;102180.19;;;16.44;84.18
21781;BME280;52576;53.614;9.894;2023-06-24T05:33:12;102189.50;;;16.49;83.57
21781;BME280;52576;53.614;9.894;2023-06-24T05:35:15;102189.94;;;16.56;83.23
21781;BME280;52576;53.614;9.894;2023-06-24T05:37:18;102190.38;;;16.62;82.89
21781;BME280;52576;53.614;9.894;2023-06-24T05:39:22;102193.44;;;16.69;82.85
21781;BME280;52576;53.614;9.894;2023-06-24T05:41:25;102185.06;;;16.75;82.67
21781;BME280;52576;53.614;9.894;2023-06-24T05:43:28;102174.91;;;16.82;82.09
21781;BME280;52576;53.614;9.894;2023-06-24T05:45:31;102179.78;;;16.88;81.76
21781;BME280;52576;53.614;9.894;2023-06-24T05:47:34;102184.63;;;16.94;81.41
21781;BME280;52576;53.614;9.894;2023-06-24T05:49:37;102192.34;;;16.97;81.00
21781;BME280;52576;53.614;9.894;2023-06-24T05:51:40;102190.34;;;17.01;80.32
21781;BME280;52576;53.614;9.894;2023-06-24T05:53:43;102194.56;;;17.03;80.48
21781;BME280;52576;53.614;9.894;2023-06-24T05:55:47;102196.78;;;17.09;79.79
21781;BME280;52576;53.614;9.894;2023-06-24T05:57:50;102209.56;;;17.15;79.69
21781;BME280;52576;53.614;9.894;2023-06-24T05:59:53;102204.56;;;17.23;78.74
21781;BME280;52576;53.614;9.894;2023-06-24T06:01:55;102207.53;;;17.32;78.25
21781;BME280;52576;53.614;9.894;2023-06-24T06:03:58;102202.84;;;17.35;77.57
21781;BME280;52576;53.614;9.894;2023-06-24T06:06:01;102197.22;;;17.40;77.08
21781;BME280;52576;53.614;9.894;2023-06-24T06:08:05;102198.66;;;17.44;76.45
21781;BME280;52576;53.614;9.894;2023-06-24T06:10:08;102206.41;;;17.47;75.83
21781;BME280;52576;53.614;9.894;2023-06-24T06:12:12;102212.44;;;17.49;75.35
21781;BME280;52576;53.614;9.894;2023-06-24T06:14:15;102210.50;;;17.51;75.59
21781;BME280;52576;53.614;9.894;2023-06-24T06:16:18;102210.28;;;17.54;75.09
21781;BME280;52576;53.614;9.894;2023-06-24T06:18:21;102218.75;;;17.59;75.20
21781;BME280;52576;53.614;9.894;2023-06-24T06:20:24;102216.63;;;17.64;74.80
21781;BME280;52576;53.614;9.894;2023-06-24T06:22:27;102217.13;;;17.69;74.48
21781;BME280;52576;53.614;9.894;2023-06-24T06:24:29;102226.56;;;17.73;74.31
21781;BME280;52576;53.614;9.894;2023-06-24T06:26:32;102217.66;;;17.74;74.04
21781;BME280;52576;53.614;9.894;2023-06-24T06:28:36;102219.34;;;17.75;73.69
21781;BME280;52576;53.614;9.894;2023-06-24T06:30:39;102221.88;;;17.77;73.81
21781;BME280;52576;53.614;9.894;2023-06-24T06:32:42;102224.19;;;17.81;73.40
21781;BME280;52576;53.614;9.894;2023-06-24T06:34:45;102230.88;;;17.87;73.73
21781;BME280;52576;53.614;9.894;2023-06-24T06:36:48;102210.00;;;17.93;73.03
21781;BME280;52576;53.614;9.894;2023-06-24T06:38:51;102214.97;;;17.98;72.74
21781;BME280;52576;53.614;9.894;2023-06-24T06:40:54;102215.59;;;18.02;72.95
21781;BME280;52576;53.614;9.894;2023-06-24T06:42:57;102215.38;;;18.05;72.34
21781;BME280;52576;53.614;9.894;2023-06-24T06:45:01;102215.88;;;18.10;72.35
21781;BME280;52576;53.614;9.894;2023-06-24T06:47:05;102222.53;;;18.15;72.17
21781;BME280;52576;53.614;9.894;2023-06-24T06:49:08;102209.72;;;18.20;71.84
21781;BME280;52576;53.614;9.894;2023-06-24T06:51:12;102220.72;;;18.27;71.67
21781;BME280;52576;53.614;9.894;2023-06-24T06:53:15;102212.41;;;18.31;71.46
21781;BME280;52576;53.614;9.894;2023-06-24T06:55:18;102208.56;;;18.36;70.97
21781;BME280;52576;53.614;9.894;2023-06-24T06:57:20;102215.97;;;18.43;70.59
21781;BME280;52576;53.614;9.894;2023-06-24T06:59:23;102212.06;;;18.47;69.98
21781;BME280;52576;53.614;9.894;2023-06-24T07:01:28;102209.06;;;18.52;70.21
21781;BME280;52576;53.614;9.894;2023-06-24T07:03:30;102210.53;;;18.56;69.52
21781;BME280;52576;53.614;9.894;2023-06-24T07:05:33;102205.84;;;18.59;69.16
21781;BME280;52576;53.614;9.894;2023-06-24T07:07:40;102211.78;;;18.63;69.30
21781;BME280;52576;53.614;9.894;2023-06-24T07:09:44;102213.97;;;18.69;69.67
21781;BME280;52576;53.614;9.894;2023-06-24T07:11:47;102213.34;;;18.77;69.39
21781;BME280;52576;53.614;9.894;2023-06-24T07:13:50;102214.56;;;18.84;68.57
21781;BME280;52576;53.614;9.894;2023-06-24T07:15:53;102216.97;;;18.87;68.43
21781;BME280;52576;53.614;9.894;2023-06-24T07:17:58;102213.84;;;18.93;68.27
21781;BME280;52576;53.614;9.894;2023-06-24T07:20:00;102211.63;;;18.98;67.59
21781;BME280;52576;53.614;9.894;2023-06-24T07:22:04;102220.09;;;19.03;67.00
21781;BME280;52576;53.614;9.894;2023-06-24T07:24:07;102226.84;;;19.07;66.88
21781;BME280;52576;53.614;9.894;2023-06-24T07:26:09;102220.34;;;19.11;66.92
21781;BME280;52576;53.614;9.894;2023-06-24T07:28:12;102221.78;;;19.15;66.55
21781;BME280;52576;53.614;9.894;2023-06-24T07:30:15;102223.25;;;19.19;65.61
21781;BME280;52576;53.614;9.894;2023-06-24T07:32:18;102227.59;;;19.20;65.61
21781;BME280;52576;53.614;9.894;2023-06-24T07:34:22;102220.19;;;19.24;65.43
21781;BME280;52576;53.614;9.894;2023-06-24T07:36:25;102219.81;;;19.28;65.52
21781;BME280;52576;53.614;9.894;2023-06-24T07:38:28;102226.34;;;19.36;65.71
21781;BME280;52576;53.614;9.894;2023-06-24T07:40:31;102225.59;;;19.45;65.13
21781;BME280;52576;53.614;9.894;2023-06-24T07:42:34;102232.59;;;19.57;64.56
21781;BME280;52576;53.614;9.894;2023-06-24T07:44:37;102228.94;;;19.69;63.70
21781;BME280;52576;53.614;9.894;2023-06-24T07:46:41;102229.84;;;19.79;63.74
21781;BME280;52576;53.614;9.894;2023-06-24T07:48:44;102230.53;;;19.92;63.28
21781;BME280;52576;53.614;9.894;2023-06-24T07:50:48;102243.53;;;20.07;63.11
21781;BME280;52576;53.614;9.894;2023-06-24T07:52:51;102234.41;;;20.20;62.19
21781;BME280;52576;53.614;9.894;2023-06-24T07:54:53;102234.44;;;20.30;61.45
21781;BME280;52576;53.614;9.894;2023-06-24T07:56:56;102235.41;;;20.40;60.60
21781;BME280;52576;53.614;9.894;2023-06-24T07:58:59;102230.28;;;20.48;59.73
21781;BME280;52576;53.614;9.894;2023-06-24T08:01:02;102221.03;;;20.52;59.15
21781;BME280;52576;53.614;9.894;2023-06-24T08:03:05;102222.03;;;20.51;59.58
21781;BME280;52576;53.614;9.894;2023-06-24T08:05:08;102218.38;;;20.52;59.64
21781;BME280;52576;53.614;9.894;2023-06-24T08:07:13;102220.03;;;20.53;59.68
21781;BME280;52576;53.614;9.894;2023-06-24T08:09:16;102218.38;;;20.52;59.79
21781;BME280;52576;53.614;9.894;2023-06-24T08:11:19;102222.88;;;20.52;60.06
21781;BME280;52576;53.614;9.894;2023-06-24T08:13:23;102217.66;;;20.50;59.88
21781;BME280;52576;53.614;9.894;2023-06-24T08:15:26;102217.53;;;20.52;59.94
21781;BME280;52576;53.614;9.894;2023-06-24T08:17:29;102220.38;;;20.60;59.85
21781;BME280;52576;53.614;9.894;2023-06-24T08:19:32;102227.69;;;20.67;59.64
21781;BME280;52576;53.614;9.894;2023-06-24T08:21:35;102225.22;;;20.76;59.04
21781;BME280;52576;53.614;9.894;2023-06-24T08:23:41;102220.03;;;20.84;58.85
21781;BME280;52576;53.614;9.894;2023-06-24T08:25:44;102221.22;;;20.91;58.34
21781;BME280;52576;53.614;9.894;2023-06-24T08:27:47;102216.31;;;20.96;57.80
21781;BME280;52576;53.614;9.894;2023-06-24T08:29:50;102214.94;;;21.02;57.27
21781;BME280;52576;53.614;9.894;2023-06-24T08:31:53;102215.50;;;21.05;57.85
21781;BME280;52576;53.614;9.894;2023-06-24T08:33:58;102216.91;;;21.09;58.20
21781;BME280;52576;53.614;9.894;2023-06-24T08:36:04;102210.47;;;21.12;58.12
21781;BME280;52576;53.614;9.894;2023-06-24T08:38:06;102221.00;;;21.13;57.91
21781;BME280;52576;53.614;9.894;2023-06-24T08:40:12;102216.50;;;21.14;57.90
21781;BME280;52576;53.614;9.894;2023-06-24T08:42:15;102215.41;;;21.16;58.29
21781;BME280;52576;53.614;9.894;2023-06-24T08:44:18;102215.03;;;21.21;57.90
21781;BME280;52576;53.614;9.894;2023-06-24T08:46:21;102217.28;;;21.25;57.87
21781;BME280;52576;53.614;9.894;2023-06-24T08:48:26;102219.13;;;21.34;57.69
21781;BME280;52576;53.614;9.894;2023-06-24T08:50:33;102215.63;;;21.44;57.23
21781;BME280;52576;53.614;9.894;2023-06-24T08:52:37;102221.13;;;21.52;56.60
21781;BME280;52576;53.614;9.894;2023-06-24T08:54:40;102216.19;;;21.57;55.63
21781;BME280;52576;53.614;9.894;2023-06-24T08:56:46;102209.75;;;21.59;55.56
21781;BME280;52576;53.614;9.894;2023-06-24T08:58:48;102220.97;;;21.63;55.38
21781;BME280;52576;53.614;9.894;2023-06-24T09:00:51;102224.06;;;21.68;55.33
21781;BME280;52576;53.614;9.894;2023-06-24T09:02:55;102227.03;;;21.75;55.20
21781;BME280;52576;53.614;9.894;2023-06-24T09:04:58;102221.56;;;21.76;54.60
21781;BME280;52576;53.614;9.894;2023-06-24T09:07:01;102223.25;;;21.77;55.00
21781;BME280;52576;53.614;9.894;2023-06-24T09:09:16;102216.78;;;21.80;54.24
21781;BME280;52576;53.614;9.894;2023-06-24T09:11:22;102226.03;;;21.85;54.12
21781;BME280;52576;53.614;9.894;2023-06-24T09:13:33;102225.75;;;21.88;54.17
21781;BME280;52576;53.614;9.894;2023-06-24T09:15:37;102227.31;;;21.91;53.77
21781;BME280;52576;53.614;9.894;2023-06-24T09:17:43;102242.06;;;21.95;53.96
21781;BME280;52576;53.614;9.894;2023-06-24T09:19:46;102233.63;;;21.99;53.63
21781;BME280;52576;53.614;9.894;2023-06-24T09:21:49;102230.72;;;22.03;53.05
21781;BME280;52576;53.614;9.894;2023-06-24T09:23:53;102230.44;;;22.06;53.16
21781;BME280;52576;53.614;9.894;2023-06-24T09:25:56;102228.47;;;22.08;52.64
21781;BME280;52576;53.614;9.894;2023-06-24T09:28:00;102220.47;;;22.08;52.50
21781;BME280;52576;53.614;9.894;2023-06-24T09:30:08;102220.16;;;22.11;52.48
21781;BME280;52576;53.614;9.894;2023-06-24T09:32:19;102217.06;;;22.15;52.78
21781;BME280;52576;53.614;9.894;2023-06-24T09:34:22;102215.78;;;22.19;52.67
21781;BME280;52576;53.614;9.894;2023-06-24T09:36:25;102203.84;;;22.23;53.04
21781;BME280;52576;53.614;9.894;2023-06-24T09:38:33;102206.66;;;22.31;52.56
21781;BME280;52576;53.614;9.894;2023-06-24T09:40:36;102214.06;;;22.38;52.66
21781;BME280;52576;53.614;9.894;2023-06-24T09:42:46;102219.69;;;22.44;52.26
21781;BME280;52576;53.614;9.894;2023-06-24T09:44:53;102206.88;;;22.48;51.84
21781;BME280;52576;53.614;9.894;2023-06-24T09:46:58;102210.09;;;22.51;52.00
21781;BME280;52576;53.614;9.894;2023-06-24T09:49:00;102200.13;;;22.53;52.01
21781;BME280;52576;53.614;9.894;2023-06-24T09:51:04;102201.22;;;22.60;52.08
21781;BME280;52576;53.614;9.894;2023-06-24T09:53:06;102192.59;;;22.66;52.05
21781;BME280;52576;53.614;9.894;2023-06-24T09:55:10;102192.72;;;22.75;51.74
21781;BME280;52576;53.614;9.894;2023-06-24T09:57:15;102183.84;;;22.84;51.42
21781;BME280;52576;53.614;9.894;2023-06-24T09:59:20;102186.88;;;22.89;50.86
21781;BME280;52576;53.614;9.894;2023-06-24T10:01:24;102192.50;;;22.95;51.02
21781;BME280;52576;53.614;9.894;2023-06-24T10:03:28;102195.72;;;22.99;50.84
21781;BME280;52576;53.614;9.894;2023-06-24T10:05:32;102188.09;;;23.04;50.83
21781;BME280;52576;53.614;9.894;2023-06-24T10:07:35;102188.50;;;23.09;50.96
21781;BME280;52576;53.614;9.894;2023-06-24T10:09:39;102185.88;;;23.17;50.74
21781;BME280;52576;53.614;9.894;2023-06-24T10:11:42;102178.13;;;23.24;50.24
21781;BME280;52576;53.614;9.894;2023-06-24T10:13:45;102182.03;;;23.29;49.78
21781;BME280;52576;53.614;9.894;2023-06-24T10:15:48;102173.41;;;23.35;50.00
21781;BME280;52576;53.614;9.894;2023-06-24T10:17:51;102182.47;;;23.43;50.21
21781;BME280;52576;53.614;9.894;2023-06-24T10:20:19;102178.22;;;23.50;49.37
21781;BME280;52576;53.614;9.894;2023-06-24T10:22:25;102179.31;;;23.57;49.64
21781;BME280;52576;53.614;9.894;2023-06-24T10:24:34;102175.03;;;23.64;49.42
21781;BME280;52576;53.614;9.894;2023-06-24T10:26:39;102169.88;;;23.71;49.75
21781;BME280;52576;53.614;9.894;2023-06-24T10:31:04;102168.50;;;23.84;49.14
21781;BME280;52576;53.614;9.894;2023-06-24T10:33:09;102163.53;;;23.89;49.16
21781;BME280;52576;53.614;9.894;2023-06-24T10:35:22;102162.19;;;23.93;48.68
21781;BME280;52576;53.614;9.894;2023-06-24T10:37:31;102165.41;;;23.97;48.50
21781;BME280;52576;53.614;9.894;2023-06-24T10:39:40;102166.25;;;23.97;48.66
21781;BME280;52576;53.614;9.894;2023-06-24T10:41:47;102160.59;;;24.00;48.54
21781;BME280;52576;53.614;9.894;2023-06-24T10:43:50;102165.31;;;24.07;48.47
21781;BME280;52576;53.614;9.894;2023-06-24T10:45:53;102165.56;;;24.13;48.20
21781;BME280;52576;53.614;9.894;2023-06-24T10:47:56;102161.22;;;24.20;48.12
21781;BME280;52576;53.614;9.894;2023-06-24T10:50:02;102165.81;;;24.28;48.65
21781;BME280;52576;53.614;9.894;2023-06-24T10:52:08;102158.53;;;24.38;48.21